sensor_id;sensor_type;location;lat;lon;timestamp;temperature;humidity
22108;DHT22;11220;48.812;9.128;2024-02-21T00:00:06;17.90;81.10
22108;DHT22;11220;48.812;9.128;2024-02-21T00:02:32;17.90;81.10
22108;DHT22;11220;48.812;9.128;2024-02-21T00:04:57;17.90;81.20
22108;DHT22;11220;48.812;9.128;2024-02-21T00:07:22;17.80;81.10
22108;DHT22;11220;48.812;9.128;2024-02-21T00:09:48;17.90;81.20
22108;DHT22;11220;48.812;9.128;2024-02-21T00:12:14;17.90;81.30
22108;DHT22;11220;48.812;9.128;2024-02-21T00:14:40;17.90;81.30
22108;DHT22;11220;48.812;9.128;2024-02-21T00:17:06;17.90;81.30
22108;DHT22;11220;48.812;9.128;2024-02-21T00:19:31;17.90;81.30
22108;DHT22;11220;48.812;9.128;2024-02-21T00:21:57;17.80;81.30
22108;DHT22;11220;48.812;9.128;2024-02-21T00:24:22;17.80;81.20
22108;DHT22;11220;48.812;9.128;2024-02-21T00:26:48;17.80;81.30
22108;DHT22;11220;48.812;9.128;2024-02-21T00:29:13;17.80;81.30
22108;DHT22;11220;48.812;9.128;2024-02-21T00:31:39;17.80;81.30
22108;DHT22;11220;48.812;9.128;2024-02-21T00:34:04;17.80;81.30
22108;DHT22;11220;48.812;9.128;2024-02-21T00:36:30;17.80;81.40
22108;DHT22;11220;48.812;9.128;2024-02-21T00:38:55;17.80;81.40
22108;DHT22;11220;48.812;9.128;2024-02-21T00:41:21;17.80;81.40
22108;DHT22;11220;48.812;9.128;2024-02-21T00:43:46;17.80;81.40
22108;DHT22;11220;48.812;9.128;2024-02-21T00:46:14;17.80;81.50
22108;DHT22;11220;48.812;9.128;2024-02-21T00:48:39;17.80;81.50
22108;DHT22;11220;48.812;9.128;2024-02-21T00:51:05;17.80;81.50
22108;DHT22;11220;48.812;9.128;2024-02-21T00:53:30;17.80;81.50
22108;DHT22;11220;48.812;9.128;2024-02-21T00:55:56;17.80;81.50
22108;DHT22;11220;48.812;9.128;2024-02-21T00:58:22;17.80;81.50
22108;DHT22;11220;48.812;9.128;2024-02-21T01:00:48;17.80;81.50
22108;DHT22;11220;48.812;9.128;2024-02-21T01:03:13;17.80;81.50
22108;DHT22;11220;48.812;9.128;2024-02-21T01:05:39;17.80;81.60
22108;DHT22;11220;48.812;9.128;2024-02-21T01:08:04;17.70;81.50
22108;DHT22;11220;48.812;9.128;2024-02-21T01:10:30;17.70;81.50
22108;DHT22;11220;48.812;9.128;2024-02-21T01:12:56;17.70;81.50
22108;DHT22;11220;48.812;9.128;2024-02-21T01:15:21;17.70;81.50
22108;DHT22;11220;48.812;9.128;2024-02-21T01:17:47;17.70;81.50
22108;DHT22;11220;48.812;9.128;2024-02-21T01:20:13;17.70;81.50
22108;DHT22;11220;48.812;9.128;2024-02-21T01:22:38;17.70;81.60
22108;DHT22;11220;48.812;9.128;2024-02-21T01:25:04;17.70;81.50
22108;DHT22;11220;48.812;9.128;2024-02-21T01:27:29;17.70;81.60
22108;DHT22;11220;48.812;9.128;2024-02-21T01:29:55;17.70;81.60
22108;DHT22;11220;48.812;9.128;2024-02-21T01:32:21;17.70;81.60
22108;DHT22;11220;48.812;9.128;2024-02-21T01:34:49;17.70;81.60
22108;DHT22;11220;48.812;9.128;2024-02-21T01:37:15;17.70;81.70
22108;DHT22;11220;48.812;9.128;2024-02-21T01:39:40;17.70;81.70
22108;DHT22;11220;48.812;9.128;2024-02-21T01:42:06;17.70;81.70
22108;DHT22;11220;48.812;9.128;2024-02-21T01:44:32;17.70;81.70
22108;DHT22;11220;48.812;9.128;2024-02-21T01:46:57;17.70;81.70
22108;DHT22;11220;48.812;9.128;2024-02-21T01:49:24;17.70;81.80
22108;DHT22;11220;48.812;9.128;2024-02-21T01:51:49;17.70;81.80
22108;DHT22;11220;48.812;9.128;2024-02-21T01:54:17;17.70;81.80
22108;DHT22;11220;48.812;9.128;2024-02-21T01:56:44;17.70;81.80
22108;DHT22;11220;48.812;9.128;2024-02-21T01:59:10;17.70;81.80
22108;DHT22;11220;48.812;9.128;2024-02-21T02:01:36;17.70;81.80
22108;DHT22;11220;48.812;9.128;2024-02-21T02:04:02;17.70;81.80
22108;DHT22;11220;48.812;9.128;2024-02-21T02:06:30;17.70;81.80
22108;DHT22;11220;48.812;9.128;2024-02-21T02:08:56;17.70;81.80
22108;DHT22;11220;48.812;9.128;2024-02-21T02:11:22;17.70;81.90
22108;DHT22;11220;48.812;9.128;2024-02-21T02:13:48;17.70;81.80
22108;DHT22;11220;48.812;9.128;2024-02-21T02:16:13;17.70;81.90
22108;DHT22;11220;48.812;9.128;2024-02-21T02:18:39;17.60;81.90
22108;DHT22;11220;48.812;9.128;2024-02-21T02:21:10;17.70;81.90
22108;DHT22;11220;48.812;9.128;2024-02-21T02:23:36;17.70;81.90
22108;DHT22;11220;48.812;9.128;2024-02-21T02:26:01;17.60;81.90
22108;DHT22;11220;48.812;9.128;2024-02-21T02:28:27;17.60;81.90
22108;DHT22;11220;48.812;9.128;2024-02-21T02:30:53;17.60;81.90
22108;DHT22;11220;48.812;9.128;2024-02-21T02:33:18;17.60;81.90
22108;DHT22;11220;48.812;9.128;2024-02-21T02:35:44;17.60;82.00
22108;DHT22;11220;48.812;9.128;2024-02-21T02:38:10;17.60;82.00
22108;DHT22;11220;48.812;9.128;2024-02-21T02:40:38;17.60;82.00
22108;DHT22;11220;48.812;9.128;2024-02-21T02:43:03;17.60;82.00
22108;DHT22;11220;48.812;9.128;2024-02-21T02:45:29;17.60;82.00
22108;DHT22;11220;48.812;9.128;2024-02-21T02:47:56;17.60;81.90
22108;DHT22;11220;48.812;9.128;2024-02-21T02:50:26;17.60;81.90
22108;DHT22;11220;48.812;9.128;2024-02-21T02:52:52;17.60;82.00
22108;DHT22;11220;48.812;9.128;2024-02-21T02:55:18;17.60;81.90
22108;DHT22;11220;48.812;9.128;2024-02-21T02:57:44;17.60;82.00
22108;DHT22;11220;48.812;9.128;2024-02-21T03:00:13;17.60;81.90
22108;DHT22;11220;48.812;9.128;2024-02-21T03:02:41;17.60;82.00
22108;DHT22;11220;48.812;9.128;2024-02-21T03:05:15;17.60;82.00
22108;DHT22;11220;48.812;9.128;2024-02-21T03:07:42;17.60;82.00
22108;DHT22;11220;48.812;9.128;2024-02-21T03:10:08;17.60;82.00
22108;DHT22;11220;48.812;9.128;2024-02-21T03:12:34;17.60;82.00
22108;DHT22;11220;48.812;9.128;2024-02-21T03:14:59;17.60;82.10
22108;DHT22;11220;48.812;9.128;2024-02-21T03:17:25;17.60;82.00
22108;DHT22;11220;48.812;9.128;2024-02-21T03:19:52;17.60;82.10
22108;DHT22;11220;48.812;9.128;2024-02-21T03:22:18;17.60;82.10
22108;DHT22;11220;48.812;9.128;2024-02-21T03:24:44;17.60;82.10
22108;DHT22;11220;48.812;9.128;2024-02-21T03:27:10;17.60;82.10
22108;DHT22;11220;48.812;9.128;2024-02-21T03:29:35;17.50;82.10
22108;DHT22;11220;48.812;9.128;2024-02-21T03:32:01;17.60;82.10
22108;DHT22;11220;48.812;9.128;2024-02-21T03:34:26;17.60;82.20
22108;DHT22;11220;48.812;9.128;2024-02-21T03:36:52;17.50;82.20
22108;DHT22;11220;48.812;9.128;2024-02-21T03:39:17;17.60;82.20
22108;DHT22;11220;48.812;9.128;2024-02-21T03:41:43;17.60;82.20
22108;DHT22;11220;48.812;9.128;2024-02-21T03:44:09;17.60;82.30
22108;DHT22;11220;48.812;9.128;2024-02-21T03:46:34;17.50;82.10
22108;DHT22;11220;48.812;9.128;2024-02-21T03:49:00;17.50;82.20
22108;DHT22;11220;48.812;9.128;2024-02-21T03:51:26;17.50;82.20
22108;DHT22;11220;48.812;9.128;2024-02-21T03:53:51;17.50;82.30
22108;DHT22;11220;48.812;9.128;2024-02-21T03:56:17;17.50;82.20
22108;DHT22;11220;48.812;9.128;2024-02-21T03:58:42;17.50;82.20
22108;DHT22;11220;48.812;9.128;2024-02-21T04:01:08;17.50;82.30
22108;DHT22;11220;48.812;9.128;2024-02-21T04:03:33;17.50;82.30
22108;DHT22;11220;48.812;9.128;2024-02-21T04:05:59;17.50;82.20
22108;DHT22;11220;48.812;9.128;2024-02-21T04:08:25;17.50;82.30
22108;DHT22;11220;48.812;9.128;2024-02-21T04:10:51;17.50;82.30
22108;DHT22;11220;48.812;9.128;2024-02-21T04:13:16;17.50;82.30
22108;DHT22;11220;48.812;9.128;2024-02-21T04:15:42;17.50;82.40
22108;DHT22;11220;48.812;9.128;2024-02-21T04:18:07;17.50;82.40
22108;DHT22;11220;48.812;9.128;2024-02-21T04:20:34;17.50;82.40
22108;DHT22;11220;48.812;9.128;2024-02-21T04:23:00;17.50;82.40
22108;DHT22;11220;48.812;9.128;2024-02-21T04:25:25;17.50;82.40
22108;DHT22;11220;48.812;9.128;2024-02-21T04:27:51;17.50;82.40
22108;DHT22;11220;48.812;9.128;2024-02-21T04:30:17;17.50;82.40
22108;DHT22;11220;48.812;9.128;2024-02-21T04:32:42;17.50;82.40
22108;DHT22;11220;48.812;9.128;2024-02-21T04:35:08;17.50;82.40
22108;DHT22;11220;48.812;9.128;2024-02-21T04:37:34;17.50;82.40
22108;DHT22;11220;48.812;9.128;2024-02-21T04:39:59;17.50;82.50
22108;DHT22;11220;48.812;9.128;2024-02-21T04:42:25;17.50;82.50
22108;DHT22;11220;48.812;9.128;2024-02-21T04:44:50;17.40;82.40
22108;DHT22;11220;48.812;9.128;2024-02-21T04:47:16;17.50;82.50
22108;DHT22;11220;48.812;9.128;2024-02-21T04:49:42;17.50;82.50
22108;DHT22;11220;48.812;9.128;2024-02-21T04:52:07;17.50;82.50
22108;DHT22;11220;48.812;9.128;2024-02-21T04:54:33;17.40;82.40
22108;DHT22;11220;48.812;9.128;2024-02-21T04:57:00;17.40;82.40
22108;DHT22;11220;48.812;9.128;2024-02-21T04:59:26;17.40;82.50
22108;DHT22;11220;48.812;9.128;2024-02-21T05:01:51;17.40;82.50
22108;DHT22;11220;48.812;9.128;2024-02-21T05:04:17;17.40;82.50
22108;DHT22;11220;48.812;9.128;2024-02-21T05:06:42;17.40;82.50
22108;DHT22;11220;48.812;9.128;2024-02-21T05:09:09;17.40;82.50
22108;DHT22;11220;48.812;9.128;2024-02-21T05:11:35;17.40;82.50
22108;DHT22;11220;48.812;9.128;2024-02-21T05:14:01;17.40;82.50
22108;DHT22;11220;48.812;9.128;2024-02-21T05:16:27;17.40;82.50
22108;DHT22;11220;48.812;9.128;2024-02-21T05:18:52;17.40;82.50
22108;DHT22;11220;48.812;9.128;2024-02-21T05:21:18;17.40;82.50
22108;DHT22;11220;48.812;9.128;2024-02-21T05:23:44;17.40;82.50
22108;DHT22;11220;48.812;9.128;2024-02-21T05:26:10;17.40;82.50
22108;DHT22;11220;48.812;9.128;2024-02-21T05:28:35;17.40;82.50
22108;DHT22;11220;48.812;9.128;2024-02-21T05:31:01;17.40;82.50
22108;DHT22;11220;48.812;9.128;2024-02-21T05:33:26;17.40;82.50
22108;DHT22;11220;48.812;9.128;2024-02-21T05:35:52;17.40;82.50
22108;DHT22;11220;48.812;9.128;2024-02-21T05:38:18;17.40;82.60
22108;DHT22;11220;48.812;9.128;2024-02-21T05:40:44;17.40;82.60
22108;DHT22;11220;48.812;9.128;2024-02-21T05:43:10;17.40;82.60
22108;DHT22;11220;48.812;9.128;2024-02-21T05:45:36;17.40;82.60
22108;DHT22;11220;48.812;9.128;2024-02-21T05:48:03;17.40;82.60
22108;DHT22;11220;48.812;9.128;2024-02-21T05:50:29;17.40;82.40
22108;DHT22;11220;48.812;9.128;2024-02-21T05:52:55;17.40;82.40
22108;DHT22;11220;48.812;9.128;2024-02-21T05:55:21;17.40;82.30
22108;DHT22;11220;48.812;9.128;2024-02-21T05:57:47;17.40;82.30
22108;DHT22;11220;48.812;9.128;2024-02-21T06:00:13;17.40;82.30
22108;DHT22;11220;48.812;9.128;2024-02-21T06:02:39;17.40;82.30
22108;DHT22;11220;48.812;9.128;2024-02-21T06:05:05;17.40;82.30
22108;DHT22;11220;48.812;9.128;2024-02-21T06:07:33;17.40;82.30
22108;DHT22;11220;48.812;9.128;2024-02-21T06:09:58;17.40;82.30
22108;DHT22;11220;48.812;9.128;2024-02-21T06:12:24;17.50;82.40
22108;DHT22;11220;48.812;9.128;2024-02-21T06:14:49;17.50;82.30
22108;DHT22;11220;48.812;9.128;2024-02-21T06:17:15;17.50;82.20
22108;DHT22;11220;48.812;9.128;2024-02-21T06:19:43;17.50;82.20
22108;DHT22;11220;48.812;9.128;2024-02-21T06:22:08;17.60;82.30
22108;DHT22;11220;48.812;9.128;2024-02-21T06:24:35;17.60;82.10
22108;DHT22;11220;48.812;9.128;2024-02-21T06:27:02;17.60;82.00
22108;DHT22;11220;48.812;9.128;2024-02-21T06:29:27;17.70;82.00
22108;DHT22;11220;48.812;9.128;2024-02-21T06:31:53;17.70;82.00
22108;DHT22;11220;48.812;9.128;2024-02-21T06:34:18;17.70;82.00
22108;DHT22;11220;48.812;9.128;2024-02-21T06:36:45;17.70;82.00
22108;DHT22;11220;48.812;9.128;2024-02-21T06:39:10;17.80;82.00
22108;DHT22;11220;48.812;9.128;2024-02-21T06:41:37;17.80;81.90
22108;DHT22;11220;48.812;9.128;2024-02-21T06:44:02;17.80;81.80
22108;DHT22;11220;48.812;9.128;2024-02-21T06:46:29;17.90;81.90
22108;DHT22;11220;48.812;9.128;2024-02-21T06:48:55;17.90;82.00
22108;DHT22;11220;48.812;9.128;2024-02-21T06:51:24;17.90;81.80
22108;DHT22;11220;48.812;9.128;2024-02-21T06:53:50;18.00;81.60
22108;DHT22;11220;48.812;9.128;2024-02-21T06:56:16;18.00;81.40
22108;DHT22;11220;48.812;9.128;2024-02-21T06:58:41;18.00;81.30
22108;DHT22;11220;48.812;9.128;2024-02-21T07:01:07;18.10;81.40
22108;DHT22;11220;48.812;9.128;2024-02-21T07:03:33;18.10;81.40
22108;DHT22;11220;48.812;9.128;2024-02-21T07:05:58;18.10;81.30
22108;DHT22;11220;48.812;9.128;2024-02-21T07:08:24;18.10;81.20
22108;DHT22;11220;48.812;9.128;2024-02-21T07:10:50;18.10;81.20
22108;DHT22;11220;48.812;9.128;2024-02-21T07:13:15;18.20;81.20
22108;DHT22;11220;48.812;9.128;2024-02-21T07:15:41;18.20;81.20
22108;DHT22;11220;48.812;9.128;2024-02-21T07:18:07;18.20;81.10
22108;DHT22;11220;48.812;9.128;2024-02-21T07:20:33;18.30;81.10
22108;DHT22;11220;48.812;9.128;2024-02-21T07:23:07;18.30;81.10
22108;DHT22;11220;48.812;9.128;2024-02-21T07:25:32;18.20;80.90
22108;DHT22;11220;48.812;9.128;2024-02-21T07:27:58;18.30;81.00
22108;DHT22;11220;48.812;9.128;2024-02-21T07:30:23;18.30;81.00
22108;DHT22;11220;48.812;9.128;2024-02-21T07:32:49;18.30;80.90
22108;DHT22;11220;48.812;9.128;2024-02-21T07:35:16;18.30;81.00
22108;DHT22;11220;48.812;9.128;2024-02-21T07:37:41;18.30;81.00
22108;DHT22;11220;48.812;9.128;2024-02-21T07:40:12;18.30;81.00
22108;DHT22;11220;48.812;9.128;2024-02-21T07:42:38;18.30;81.00
22108;DHT22;11220;48.812;9.128;2024-02-21T07:45:04;18.30;81.00
22108;DHT22;11220;48.812;9.128;2024-02-21T07:47:29;18.40;81.00
22108;DHT22;11220;48.812;9.128;2024-02-21T07:49:55;18.40;81.00
22108;DHT22;11220;48.812;9.128;2024-02-21T07:52:20;18.40;81.00
22108;DHT22;11220;48.812;9.128;2024-02-21T07:54:46;18.40;81.00
22108;DHT22;11220;48.812;9.128;2024-02-21T07:57:11;18.40;81.00
22108;DHT22;11220;48.812;9.128;2024-02-21T07:59:37;18.40;81.00
22108;DHT22;11220;48.812;9.128;2024-02-21T08:02:02;18.40;81.00
22108;DHT22;11220;48.812;9.128;2024-02-21T08:04:32;18.40;81.10
22108;DHT22;11220;48.812;9.128;2024-02-21T08:06:57;18.40;81.10
22108;DHT22;11220;48.812;9.128;2024-02-21T08:09:26;18.40;81.10
22108;DHT22;11220;48.812;9.128;2024-02-21T08:11:53;18.40;81.10
22108;DHT22;11220;48.812;9.128;2024-02-21T08:14:19;18.40;81.20
22108;DHT22;11220;48.812;9.128;2024-02-21T08:16:45;18.40;81.10
22108;DHT22;11220;48.812;9.128;2024-02-21T08:19:11;18.40;81.10
22108;DHT22;11220;48.812;9.128;2024-02-21T08:21:36;18.50;81.10
22108;DHT22;11220;48.812;9.128;2024-02-21T08:24:02;18.50;81.10
22108;DHT22;11220;48.812;9.128;2024-02-21T08:26:27;18.50;81.10
22108;DHT22;11220;48.812;9.128;2024-02-21T08:28:55;18.50;81.00
22108;DHT22;11220;48.812;9.128;2024-02-21T08:31:24;18.50;81.00
22108;DHT22;11220;48.812;9.128;2024-02-21T08:33:53;18.60;81.00
22108;DHT22;11220;48.812;9.128;2024-02-21T08:36:19;18.60;81.00
22108;DHT22;11220;48.812;9.128;2024-02-21T08:38:45;18.60;81.00
22108;DHT22;11220;48.812;9.128;2024-02-21T08:41:11;18.60;81.00
22108;DHT22;11220;48.812;9.128;2024-02-21T08:43:37;18.60;80.90
22108;DHT22;11220;48.812;9.128;2024-02-21T08:46:03;18.60;80.80
22108;DHT22;11220;48.812;9.128;2024-02-21T08:48:28;18.70;80.90
22108;DHT22;11220;48.812;9.128;2024-02-21T08:50:54;18.60;80.80
22108;DHT22;11220;48.812;9.128;2024-02-21T08:53:20;18.60;80.80
22108;DHT22;11220;48.812;9.128;2024-02-21T08:55:46;18.70;80.80
22108;DHT22;11220;48.812;9.128;2024-02-21T08:58:11;18.60;80.70
22108;DHT22;11220;48.812;9.128;2024-02-21T09:00:37;18.70;80.80
22108;DHT22;11220;48.812;9.128;2024-02-21T09:03:03;18.70;80.80
22108;DHT22;11220;48.812;9.128;2024-02-21T09:05:28;18.70;80.80
22108;DHT22;11220;48.812;9.128;2024-02-21T09:07:54;18.70;80.80
22108;DHT22;11220;48.812;9.128;2024-02-21T09:10:20;18.70;80.70
22108;DHT22;11220;48.812;9.128;2024-02-21T09:12:46;18.70;80.70
22108;DHT22;11220;48.812;9.128;2024-02-21T09:15:12;18.70;80.70
22108;DHT22;11220;48.812;9.128;2024-02-21T09:17:38;18.70;80.70
22108;DHT22;11220;48.812;9.128;2024-02-21T09:20:05;18.70;80.70
22108;DHT22;11220;48.812;9.128;2024-02-21T09:22:31;18.80;80.60
22108;DHT22;11220;48.812;9.128;2024-02-21T09:25:00;18.70;80.50
22108;DHT22;11220;48.812;9.128;2024-02-21T09:27:26;18.80;80.60
22108;DHT22;11220;48.812;9.128;2024-02-21T09:29:52;18.80;80.60
22108;DHT22;11220;48.812;9.128;2024-02-21T09:32:20;18.80;80.60
22108;DHT22;11220;48.812;9.128;2024-02-21T09:34:45;18.80;80.60
22108;DHT22;11220;48.812;9.128;2024-02-21T09:37:11;18.80;80.60
22108;DHT22;11220;48.812;9.128;2024-02-21T09:39:36;18.80;80.50
22108;DHT22;11220;48.812;9.128;2024-02-21T09:42:11;18.80;80.40
22108;DHT22;11220;48.812;9.128;2024-02-21T09:44:37;18.80;81.30
22108;DHT22;11220;48.812;9.128;2024-02-21T09:47:24;18.80;80.30
22108;DHT22;11220;48.812;9.128;2024-02-21T09:49:57;18.90;80.20
22108;DHT22;11220;48.812;9.128;2024-02-21T09:52:24;18.90;80.20
22108;DHT22;11220;48.812;9.128;2024-02-21T09:54:52;18.90;80.20
22108;DHT22;11220;48.812;9.128;2024-02-21T09:57:18;18.90;80.20
22108;DHT22;11220;48.812;9.128;2024-02-21T09:59:44;18.90;80.10
22108;DHT22;11220;48.812;9.128;2024-02-21T10:02:11;18.90;80.20
22108;DHT22;11220;48.812;9.128;2024-02-21T10:04:39;18.90;80.10
22108;DHT22;11220;48.812;9.128;2024-02-21T10:07:05;18.90;80.10
22108;DHT22;11220;48.812;9.128;2024-02-21T10:09:30;18.90;80.00
22108;DHT22;11220;48.812;9.128;2024-02-21T10:12:06;18.90;80.00
22108;DHT22;11220;48.812;9.128;2024-02-21T10:14:32;18.90;80.00
22108;DHT22;11220;48.812;9.128;2024-02-21T10:16:58;19.00;80.00
22108;DHT22;11220;48.812;9.128;2024-02-21T10:19:24;18.90;79.80
22108;DHT22;11220;48.812;9.128;2024-02-21T10:22:04;18.90;79.80
22108;DHT22;11220;48.812;9.128;2024-02-21T10:24:30;18.90;79.80
22108;DHT22;11220;48.812;9.128;2024-02-21T10:27:03;19.00;79.80
22108;DHT22;11220;48.812;9.128;2024-02-21T10:29:30;19.00;79.90
22108;DHT22;11220;48.812;9.128;2024-02-21T10:32:12;19.00;79.90
22108;DHT22;11220;48.812;9.128;2024-02-21T10:34:40;19.00;80.80
22108;DHT22;11220;48.812;9.128;2024-02-21T10:37:07;19.00;79.90
22108;DHT22;11220;48.812;9.128;2024-02-21T10:39:34;19.00;79.90
22108;DHT22;11220;48.812;9.128;2024-02-21T10:42:02;19.00;79.90
22108;DHT22;11220;48.812;9.128;2024-02-21T10:44:30;19.00;80.00
22108;DHT22;11220;48.812;9.128;2024-02-21T10:46:57;19.00;80.00
22108;DHT22;11220;48.812;9.128;2024-02-21T10:49:24;19.00;80.00
22108;DHT22;11220;48.812;9.128;2024-02-21T10:52:00;19.00;80.10
22108;DHT22;11220;48.812;9.128;2024-02-21T10:57:00;19.10;80.40
22108;DHT22;11220;48.812;9.128;2024-02-21T10:59:28;19.00;80.40
22108;DHT22;11220;48.812;9.128;2024-02-21T11:01:55;19.10;80.60
22108;DHT22;11220;48.812;9.128;2024-02-21T11:04:21;19.10;80.60
22108;DHT22;11220;48.812;9.128;2024-02-21T11:06:47;19.10;80.60
22108;DHT22;11220;48.812;9.128;2024-02-21T11:09:13;19.10;80.70
22108;DHT22;11220;48.812;9.128;2024-02-21T11:11:40;19.00;77.30
22108;DHT22;11220;48.812;9.128;2024-02-21T11:14:11;18.90;64.90
22108;DHT22;11220;48.812;9.128;2024-02-21T11:16:37;18.50;58.90
22108;DHT22;11220;48.812;9.128;2024-02-21T11:21:36;17.90;56.50
22108;DHT22;11220;48.812;9.128;2024-02-21T11:24:03;17.60;56.50
22108;DHT22;11220;48.812;9.128;2024-02-21T11:26:30;17.40;56.00
22108;DHT22;11220;48.812;9.128;2024-02-21T11:29:02;17.20;56.20
22108;DHT22;11220;48.812;9.128;2024-02-21T11:31:42;17.00;56.30
22108;DHT22;11220;48.812;9.128;2024-02-21T11:34:12;16.90;57.40
22108;DHT22;11220;48.812;9.128;2024-02-21T11:36:51;16.80;57.60
22108;DHT22;11220;48.812;9.128;2024-02-21T11:39:23;16.70;57.70
22108;DHT22;11220;48.812;9.128;2024-02-21T11:42:19;16.70;58.60
22108;DHT22;11220;48.812;9.128;2024-02-21T11:44:45;16.70;61.60
22108;DHT22;11220;48.812;9.128;2024-02-21T11:47:11;16.80;63.20
22108;DHT22;11220;48.812;9.128;2024-02-21T11:49:42;16.80;62.30
22108;DHT22;11220;48.812;9.128;2024-02-21T11:52:08;16.80;60.50
22108;DHT22;11220;48.812;9.128;2024-02-21T11:54:34;16.80;59.20
22108;DHT22;11220;48.812;9.128;2024-02-21T11:57:00;16.80;59.30
22108;DHT22;11220;48.812;9.128;2024-02-21T11:59:26;16.70;59.40
22108;DHT22;11220;48.812;9.128;2024-02-21T12:01:53;16.60;59.70
22108;DHT22;11220;48.812;9.128;2024-02-21T12:04:19;16.70;61.90
22108;DHT22;11220;48.812;9.128;2024-02-21T12:06:46;16.80;64.20
22108;DHT22;11220;48.812;9.128;2024-02-21T12:09:15;16.90;66.30
22108;DHT22;11220;48.812;9.128;2024-02-21T12:11:42;17.00;67.60
22108;DHT22;11220;48.812;9.128;2024-02-21T12:14:07;17.20;68.80
22108;DHT22;11220;48.812;9.128;2024-02-21T12:16:34;17.30;70.70
22108;DHT22;11220;48.812;9.128;2024-02-21T12:19:00;17.40;70.60
22108;DHT22;11220;48.812;9.128;2024-02-21T12:21:30;17.50;71.00
22108;DHT22;11220;48.812;9.128;2024-02-21T12:23:56;17.60;71.50
22108;DHT22;11220;48.812;9.128;2024-02-21T12:26:22;17.70;71.90
22108;DHT22;11220;48.812;9.128;2024-02-21T12:28:48;17.80;72.30
22108;DHT22;11220;48.812;9.128;2024-02-21T12:31:13;17.80;72.40
22108;DHT22;11220;48.812;9.128;2024-02-21T12:33:39;17.90;72.60
22108;DHT22;11220;48.812;9.128;2024-02-21T12:36:05;18.00;72.80
22108;DHT22;11220;48.812;9.128;2024-02-21T12:38:30;18.00;72.90
22108;DHT22;11220;48.812;9.128;2024-02-21T12:40:56;18.10;73.20
22108;DHT22;11220;48.812;9.128;2024-02-21T12:43:23;18.10;73.40
22108;DHT22;11220;48.812;9.128;2024-02-21T12:45:49;18.20;73.80
22108;DHT22;11220;48.812;9.128;2024-02-21T12:48:14;18.20;73.90
22108;DHT22;11220;48.812;9.128;2024-02-21T12:50:42;18.20;74.20
22108;DHT22;11220;48.812;9.128;2024-02-21T12:53:13;18.30;74.60
22108;DHT22;11220;48.812;9.128;2024-02-21T12:55:38;18.30;74.90
22108;DHT22;11220;48.812;9.128;2024-02-21T12:58:04;18.40;75.20
22108;DHT22;11220;48.812;9.128;2024-02-21T13:00:32;18.40;75.50
22108;DHT22;11220;48.812;9.128;2024-02-21T13:02:58;18.40;75.70
22108;DHT22;11220;48.812;9.128;2024-02-21T13:05:23;18.50;76.00
22108;DHT22;11220;48.812;9.128;2024-02-21T13:07:49;18.50;76.20
22108;DHT22;11220;48.812;9.128;2024-02-21T13:10:14;18.50;76.30
22108;DHT22;11220;48.812;9.128;2024-02-21T13:12:40;18.50;76.60
22108;DHT22;11220;48.812;9.128;2024-02-21T13:15:06;18.50;76.70
22108;DHT22;11220;48.812;9.128;2024-02-21T13:17:32;18.50;76.90
22108;DHT22;11220;48.812;9.128;2024-02-21T13:19:58;18.60;77.10
22108;DHT22;11220;48.812;9.128;2024-02-21T13:22:24;18.60;77.30
22108;DHT22;11220;48.812;9.128;2024-02-21T13:24:51;18.60;77.40
22108;DHT22;11220;48.812;9.128;2024-02-21T13:27:17;18.60;77.50
22108;DHT22;11220;48.812;9.128;2024-02-21T13:29:42;18.70;77.70
22108;DHT22;11220;48.812;9.128;2024-02-21T13:32:08;18.70;77.80
22108;DHT22;11220;48.812;9.128;2024-02-21T13:34:34;18.70;78.00
22108;DHT22;11220;48.812;9.128;2024-02-21T13:36:59;18.70;78.10
22108;DHT22;11220;48.812;9.128;2024-02-21T13:39:25;18.70;78.10
22108;DHT22;11220;48.812;9.128;2024-02-21T13:41:50;18.70;78.20
22108;DHT22;11220;48.812;9.128;2024-02-21T13:44:16;18.70;78.30
22108;DHT22;11220;48.812;9.128;2024-02-21T13:46:41;18.80;78.50
22108;DHT22;11220;48.812;9.128;2024-02-21T13:49:07;18.80;78.60
22108;DHT22;11220;48.812;9.128;2024-02-21T13:51:33;18.80;78.70
22108;DHT22;11220;48.812;9.128;2024-02-21T13:54:02;18.80;78.70
22108;DHT22;11220;48.812;9.128;2024-02-21T13:56:28;18.80;78.80
22108;DHT22;11220;48.812;9.128;2024-02-21T13:58:53;18.80;78.90
22108;DHT22;11220;48.812;9.128;2024-02-21T14:01:19;18.90;79.00
22108;DHT22;11220;48.812;9.128;2024-02-21T14:03:44;18.80;79.00
22108;DHT22;11220;48.812;9.128;2024-02-21T14:06:10;18.80;79.10
22108;DHT22;11220;48.812;9.128;2024-02-21T14:08:35;18.80;79.20
22108;DHT22;11220;48.812;9.128;2024-02-21T14:11:02;18.80;79.20
22108;DHT22;11220;48.812;9.128;2024-02-21T14:13:27;18.90;79.30
22108;DHT22;11220;48.812;9.128;2024-02-21T14:15:53;18.90;79.30
22108;DHT22;11220;48.812;9.128;2024-02-21T14:18:19;18.90;79.30
22108;DHT22;11220;48.812;9.128;2024-02-21T14:20:44;18.90;79.30
22108;DHT22;11220;48.812;9.128;2024-02-21T14:23:12;18.90;80.30
22108;DHT22;11220;48.812;9.128;2024-02-21T14:25:38;18.90;79.40
22108;DHT22;11220;48.812;9.128;2024-02-21T14:28:05;18.90;79.50
22108;DHT22;11220;48.812;9.128;2024-02-21T14:30:30;18.90;79.60
22108;DHT22;11220;48.812;9.128;2024-02-21T14:32:56;18.90;79.70
22108;DHT22;11220;48.812;9.128;2024-02-21T14:35:22;18.90;79.80
22108;DHT22;11220;48.812;9.128;2024-02-21T14:37:47;18.90;79.90
22108;DHT22;11220;48.812;9.128;2024-02-21T14:40:14;19.00;80.10
22108;DHT22;11220;48.812;9.128;2024-02-21T14:42:40;18.90;80.10
22108;DHT22;11220;48.812;9.128;2024-02-21T14:45:06;19.00;80.30
22108;DHT22;11220;48.812;9.128;2024-02-21T14:47:32;19.00;80.30
22108;DHT22;11220;48.812;9.128;2024-02-21T14:49:59;19.00;80.30
22108;DHT22;11220;48.812;9.128;2024-02-21T14:52:24;19.00;80.30
22108;DHT22;11220;48.812;9.128;2024-02-21T14:54:50;19.00;80.30
22108;DHT22;11220;48.812;9.128;2024-02-21T14:57:19;19.00;80.30
22108;DHT22;11220;48.812;9.128;2024-02-21T14:59:45;19.00;80.30
22108;DHT22;11220;48.812;9.128;2024-02-21T15:02:11;19.00;80.30
22108;DHT22;11220;48.812;9.128;2024-02-21T15:04:36;19.00;80.40
22108;DHT22;11220;48.812;9.128;2024-02-21T15:07:02;19.10;80.30
22108;DHT22;11220;48.812;9.128;2024-02-21T15:09:28;19.00;80.00
22108;DHT22;11220;48.812;9.128;2024-02-21T15:11:54;19.00;79.60
22108;DHT22;11220;48.812;9.128;2024-02-21T15:14:19;19.00;79.40
22108;DHT22;11220;48.812;9.128;2024-02-21T15:16:47;19.10;79.30
22108;DHT22;11220;48.812;9.128;2024-02-21T15:19:13;19.00;79.20
22108;DHT22;11220;48.812;9.128;2024-02-21T15:21:38;19.10;79.10
22108;DHT22;11220;48.812;9.128;2024-02-21T15:24:04;19.00;79.00
22108;DHT22;11220;48.812;9.128;2024-02-21T15:26:30;19.00;78.80
22108;DHT22;11220;48.812;9.128;2024-02-21T15:28:56;19.00;78.70